createdAt,value
2019-04-27T00:00:59.135Z,12.90
2019-04-27T00:03:50.465Z,11.78
2019-04-27T00:06:20.556Z,12.93
2019-04-27T00:08:53.556Z,11.28
2019-04-27T00:11:27.091Z,9.78
2019-04-27T00:13:57.071Z,12.37
2019-04-27T00:16:46.854Z,11.50
2019-04-27T00:19:49.609Z,12.40
2019-04-27T00:22:38.503Z,12.25
2019-04-27T00:25:08.199Z,10.88
2019-04-27T00:27:37.731Z,11.05
2019-04-27T00:30:07.737Z,13.05
2019-04-27T00:32:39.707Z,11.65
2019-04-27T00:35:10.693Z,10.70
2019-04-27T00:37:52.938Z,14.05
2019-04-27T00:40:35.327Z,12.78
2019-04-27T00:43:04.997Z,11.33
2019-04-27T00:45:34.513Z,11.18
2019-04-27T00:48:04.088Z,10.30
2019-04-27T00:50:33.904Z,10.70
2019-04-27T00:53:03.592Z,10.75
2019-04-27T00:55:35.478Z,11.08
2019-04-27T00:58:26.973Z,10.93
2019-04-27T01:01:04.037Z,10.82
2019-04-27T01:03:39.541Z,10.78
2019-04-27T01:06:09.009Z,11.18
2019-04-27T01:08:38.567Z,10.45
2019-04-27T01:11:08.260Z,11.25
2019-04-27T01:13:37.772Z,10.65
2019-04-27T01:16:08.606Z,11.35
2019-04-27T01:18:38.729Z,10.00
2019-04-27T01:21:09.234Z,10.35
2019-04-27T01:23:39.096Z,11.05
2019-04-27T01:26:22.534Z,10.75
2019-04-27T01:28:57.140Z,10.68
2019-04-27T01:31:26.648Z,11.22
2019-04-27T01:33:56.205Z,10.38
2019-04-27T01:36:25.722Z,11.53
2019-04-27T01:38:55.268Z,10.55
2019-04-27T01:41:24.857Z,12.28
2019-04-27T01:43:59.126Z,10.43
2019-04-27T01:46:29.563Z,11.75
2019-04-27T01:48:59.188Z,11.08
2019-04-27T01:51:29.451Z,11.95
2019-04-27T01:53:59.441Z,10.60
2019-04-27T01:56:29.448Z,10.50
2019-04-27T01:58:59.601Z,11.40
2019-04-27T02:02:00.373Z,10.32
2019-04-27T02:05:04.077Z,10.95
2019-04-27T02:07:34.433Z,11.28
2019-04-27T02:10:04.886Z,11.88
2019-04-27T02:12:34.437Z,9.60
2019-04-27T02:15:03.969Z,11.05
2019-04-27T02:17:33.542Z,11.08
2019-04-27T02:20:03.078Z,10.45
2019-04-27T02:22:32.671Z,10.90
2019-04-27T02:25:02.237Z,11.40
2019-04-27T02:27:33.557Z,9.45
2019-04-27T02:30:25.011Z,10.15
2019-04-27T02:33:30.226Z,9.10
2019-04-27T02:36:00.980Z,8.98
2019-04-27T02:38:30.837Z,8.95
2019-04-27T02:41:02.887Z,8.80
2019-04-27T02:43:51.318Z,8.28
2019-04-27T02:46:21.058Z,8.15
2019-04-27T02:48:58.661Z,8.05
2019-04-27T02:51:29.925Z,7.42
2019-04-27T02:54:01.660Z,7.10
2019-04-27T02:56:31.204Z,8.08
2019-04-27T02:59:00.827Z,7.90
2019-04-27T03:01:32.720Z,8.63
2019-04-27T03:04:02.407Z,7.30
2019-04-27T03:06:32.157Z,6.47
2019-04-27T03:09:01.690Z,7.58
2019-04-27T03:11:32.113Z,5.83
2019-04-27T03:14:32.502Z,7.10
2019-04-27T03:17:24.579Z,6.17
2019-04-27T03:19:59.860Z,7.20
2019-04-27T03:22:44.715Z,6.90
2019-04-27T03:25:34.478Z,5.97
2019-04-27T03:28:21.871Z,6.22
2019-04-27T03:30:52.488Z,5.53
2019-04-27T03:33:22.915Z,6.17
2019-04-27T03:35:53.137Z,6.83
2019-04-27T03:38:23.239Z,5.78
2019-04-27T03:40:53.325Z,5.42
2019-04-27T03:43:25.207Z,5.03
2019-04-27T03:45:55.219Z,5.70
2019-04-27T03:48:24.923Z,5.85
2019-04-27T03:51:20.159Z,4.83
2019-04-27T03:54:00.356Z,6.15
2019-04-27T03:56:33.617Z,5.45
2019-04-27T03:59:13.368Z,5.17
2019-04-27T04:01:42.854Z,5.45
2019-04-27T04:04:12.357Z,4.87
2019-04-27T04:06:41.904Z,4.85
2019-04-27T04:09:13.048Z,5.03
2019-04-27T04:11:52.758Z,4.55
2019-04-27T04:14:22.776Z,4.40
2019-04-27T04:16:59.170Z,4.17
2019-04-27T04:19:26.726Z,4.45
2019-04-27T04:21:56.213Z,4.12
2019-04-27T04:24:28.570Z,4.10
2019-04-27T04:26:56.910Z,4.70
2019-04-27T04:29:26.503Z,4.12
2019-04-27T04:31:56.028Z,4.42
2019-04-27T04:34:25.635Z,4.25
2019-04-27T04:36:55.135Z,3.40
2019-04-27T04:39:25.305Z,3.33
2019-04-27T04:42:19.566Z,3.60
2019-04-27T04:45:07.352Z,3.47
2019-04-27T04:47:55.961Z,3.70
2019-04-27T04:50:25.645Z,3.25
2019-04-27T04:52:55.137Z,2.90
2019-04-27T04:55:24.807Z,3.08
2019-04-27T04:57:54.388Z,3.62
2019-04-27T05:00:23.998Z,2.20
2019-04-27T05:02:53.548Z,4.25
2019-04-27T05:05:23.053Z,2.98
2019-04-27T05:07:52.586Z,3.70
2019-04-27T05:10:22.117Z,3.02
2019-04-27T05:12:51.767Z,2.90
2019-04-27T05:15:21.313Z,3.12
2019-04-27T05:17:51.924Z,2.52
2019-04-27T05:20:29.490Z,2.20
2019-04-27T05:22:59.494Z,2.50
2019-04-27T05:25:29.178Z,2.70
2019-04-27T05:27:59.658Z,2.10
2019-04-27T05:30:30.587Z,2.55
2019-04-27T05:33:00.222Z,2.05
2019-04-27T05:35:29.959Z,2.30
2019-04-27T05:38:02.404Z,2.42
2019-04-27T05:40:31.127Z,2.15
2019-04-27T05:43:01.004Z,2.27
2019-04-27T05:46:35.392Z,2.00
2019-04-27T05:49:06.083Z,2.50
2019-04-27T05:51:37.003Z,1.70
2019-04-27T05:54:03.396Z,1.90
2019-04-27T05:56:32.941Z,2.00
2019-04-27T05:59:02.375Z,2.17
2019-04-27T06:01:31.882Z,2.67
2019-04-27T06:04:02.242Z,1.55
2019-04-27T06:06:31.746Z,2.25
2019-04-27T06:09:01.330Z,2.00
2019-04-27T06:11:30.889Z,2.00
2019-04-27T06:14:00.360Z,1.90
2019-04-27T06:16:29.921Z,1.60
2019-04-27T06:18:59.562Z,1.85
2019-04-27T06:21:29.568Z,1.70
2019-04-27T06:23:59.146Z,1.63
2019-04-27T06:26:30.054Z,1.80
2019-04-27T06:28:59.687Z,2.10
2019-04-27T06:31:31.824Z,1.63
2019-04-27T06:34:01.364Z,2.20
2019-04-27T06:36:30.954Z,2.00
2019-04-27T06:39:00.453Z,2.43
2019-04-27T06:41:30.043Z,1.98
2019-04-27T06:44:00.328Z,2.95
2019-04-27T06:46:29.834Z,3.02
2019-04-27T06:49:00.162Z,1.87
2019-04-27T06:51:29.620Z,2.20
2019-04-27T06:53:59.549Z,2.52
2019-04-27T06:56:29.138Z,2.80
2019-04-27T06:59:25.206Z,2.20
2019-04-27T07:02:02.112Z,2.15
2019-04-27T07:04:31.541Z,2.00
2019-04-27T07:09:53.513Z,2.15
2019-04-27T07:12:22.971Z,2.55
2019-04-27T07:14:55.043Z,2.45
2019-04-27T07:17:29.668Z,4.72
2019-04-27T07:19:59.567Z,2.45
2019-04-27T07:22:29.871Z,2.87
2019-04-27T07:24:59.592Z,2.47
2019-04-27T07:27:29.232Z,2.85
2019-04-27T07:30:04.002Z,2.10
2019-04-27T07:32:39.079Z,2.87
2019-04-27T07:35:11.204Z,3.33
2019-04-27T07:37:40.362Z,3.65
2019-04-27T07:40:10.078Z,2.70
2019-04-27T07:42:41.496Z,2.37
2019-04-27T07:45:30.290Z,3.37
2019-04-27T07:48:01.575Z,2.60
2019-04-27T07:50:31.107Z,2.25
2019-04-27T07:53:00.789Z,2.37
2019-04-27T07:55:52.737Z,2.47
2019-04-27T07:58:22.625Z,3.35
2019-04-27T08:00:56.093Z,2.55
2019-04-27T08:03:29.195Z,2.58
2019-04-27T08:05:59.177Z,2.60
2019-04-27T08:08:28.754Z,3.00
2019-04-27T08:11:16.538Z,3.62
2019-04-27T08:13:46.281Z,3.22
2019-04-27T08:16:35.291Z,2.55
2019-04-27T08:19:29.874Z,3.25
2019-04-27T08:22:19.142Z,3.85
2019-04-27T08:24:51.079Z,4.08
2019-04-27T08:27:31.724Z,3.62
2019-04-27T08:30:26.081Z,2.77
2019-04-27T08:32:55.786Z,3.75
2019-04-27T08:35:50.536Z,4.22
2019-04-27T08:38:35.227Z,3.95
2019-04-27T08:41:11.944Z,4.20
2019-04-27T08:43:56.047Z,4.95
2019-04-27T08:46:22.919Z,4.25
2019-04-27T08:48:52.484Z,4.33
2019-04-27T08:51:22.112Z,4.87
2019-04-27T08:53:51.782Z,5.15
2019-04-27T08:56:21.323Z,5.50
2019-04-27T08:58:51.102Z,4.70
2019-04-27T09:01:35.538Z,5.40
2019-04-27T09:04:09.241Z,5.65
2019-04-27T09:06:51.198Z,5.33
2019-04-27T09:13:04.628Z,5.78
2019-04-27T09:15:53.531Z,5.95
2019-04-27T09:18:53.017Z,6.55
2019-04-27T09:21:25.705Z,5.62
2019-04-27T09:24:54.297Z,4.97
2019-04-27T09:27:23.782Z,6.17
2019-04-27T09:31:06.902Z,5.83
2019-04-27T09:34:00.158Z,6.12
2019-04-27T09:36:29.759Z,5.65
2019-04-27T09:39:08.563Z,5.60
2019-04-27T09:41:38.109Z,4.65
2019-04-27T09:44:31.874Z,4.75
2019-04-27T09:47:03.902Z,5.60
2019-04-27T09:49:33.581Z,6.08
2019-04-27T09:52:06.392Z,6.28
2019-04-27T09:54:36.611Z,5.30
2019-04-27T09:57:11.831Z,5.72
2019-04-27T09:59:46.963Z,6.42
2019-04-27T10:02:16.632Z,6.15
2019-04-27T10:05:06.006Z,6.53
2019-04-27T10:07:43.251Z,6.40
2019-04-27T10:10:21.693Z,5.25
2019-04-27T10:12:51.227Z,5.95
2019-04-27T10:15:21.020Z,6.05
2019-04-27T10:17:57.631Z,6.00
2019-04-27T10:20:26.892Z,6.30
2019-04-27T10:22:56.643Z,6.00
2019-04-27T10:25:28.484Z,5.30
2019-04-27T10:28:12.551Z,5.92
2019-04-27T10:30:42.544Z,5.95
2019-04-27T10:33:12.082Z,5.92
2019-04-27T10:35:41.920Z,7.37
2019-04-27T10:38:13.557Z,5.83
2019-04-27T10:40:45.668Z,4.75
2019-04-27T10:43:19.606Z,6.75
2019-04-27T10:45:57.136Z,6.10
2019-04-27T10:48:31.157Z,6.17
2019-04-27T10:51:00.721Z,6.55
2019-04-27T10:53:30.308Z,5.97
2019-04-27T10:56:01.587Z,5.78
2019-04-27T10:58:31.130Z,6.75
2019-04-27T11:01:05.585Z,5.53
2019-04-27T11:04:09.425Z,5.30
2019-04-27T11:06:41.369Z,4.70
2019-04-27T11:09:12.294Z,5.50
2019-04-27T11:12:02.646Z,5.45
2019-04-27T11:14:32.201Z,5.42
2019-04-27T11:17:01.812Z,4.80
2019-04-27T11:19:31.732Z,5.00
2019-04-27T11:22:07.051Z,5.28
2019-04-27T11:24:38.101Z,4.12
2019-04-27T11:27:09.969Z,2.10
2019-04-27T11:29:39.444Z,2.00
2019-04-27T11:32:09.273Z,1.30
2019-04-27T11:34:56.534Z,1.95
2019-04-27T11:37:30.624Z,2.62
2019-04-27T11:40:00.336Z,2.47
2019-04-27T11:45:23.613Z,2.37
2019-04-27T11:47:53.232Z,2.62
2019-04-27T11:50:22.813Z,2.60
2019-04-27T11:52:52.584Z,3.72
2019-04-27T11:55:22.342Z,2.50
2019-04-27T11:57:51.844Z,4.17
2019-04-27T12:00:23.193Z,4.05
2019-04-27T12:02:52.962Z,3.67
2019-04-27T12:05:26.039Z,3.77
2019-04-27T12:07:57.265Z,3.20
2019-04-27T12:10:26.723Z,3.12
2019-04-27T12:12:56.417Z,2.25
2019-04-27T12:15:26.411Z,1.92
2019-04-27T12:17:56.354Z,2.00
2019-04-27T12:20:26.065Z,2.08
2019-04-27T12:22:55.631Z,2.33
2019-04-27T12:25:25.153Z,1.40
2019-04-27T12:28:06.439Z,1.25
2019-04-27T12:31:10.455Z,2.10
2019-04-27T12:33:40.079Z,1.42
2019-04-27T12:36:09.625Z,2.12
2019-04-27T12:38:39.169Z,1.77
2019-04-27T12:41:08.796Z,2.37
2019-04-27T12:43:57.528Z,1.62
2019-04-27T12:46:27.187Z,1.82
2019-04-27T12:48:59.550Z,2.37
2019-04-27T12:51:48.129Z,2.42
2019-04-27T12:54:43.116Z,2.65
2019-04-27T12:58:11.218Z,2.87
2019-04-27T13:01:00.444Z,2.90
2019-04-27T13:03:31.152Z,1.57
2019-04-27T13:06:19.771Z,2.47
2019-04-27T13:08:51.837Z,1.60
2019-04-27T13:11:40.748Z,2.10
2019-04-27T13:14:29.729Z,1.55
2019-04-27T13:16:59.357Z,1.90
2019-04-27T13:19:31.965Z,2.05
2019-04-27T13:22:10.356Z,3.22
2019-04-27T13:24:59.000Z,2.50
2019-04-27T13:27:32.038Z,1.80
2019-04-27T13:30:04.579Z,2.25
2019-04-27T13:32:32.850Z,1.67
2019-04-27T13:35:05.722Z,2.98
2019-04-27T13:37:39.991Z,2.20
2019-04-27T13:40:10.748Z,2.35
2019-04-27T13:43:13.887Z,2.05
2019-04-27T13:45:59.563Z,2.00
2019-04-27T13:49:02.979Z,3.45
2019-04-27T13:52:06.496Z,2.80
2019-04-27T13:54:38.970Z,2.30
2019-04-27T13:57:11.377Z,3.30
2019-04-27T13:59:43.014Z,3.00
2019-04-27T14:02:13.561Z,2.80
2019-04-27T14:04:43.242Z,2.20
2019-04-27T14:07:12.849Z,2.95
2019-04-27T14:09:44.219Z,3.35
2019-04-27T14:12:32.714Z,2.92
2019-04-27T14:15:03.339Z,3.10
2019-04-27T14:17:33.987Z,4.15
2019-04-27T14:20:03.539Z,3.75
2019-04-27T14:22:53.729Z,3.25
2019-04-27T14:25:24.701Z,3.70
2019-04-27T14:27:56.167Z,3.58
2019-04-27T14:30:27.334Z,3.25
2019-04-27T14:32:57.954Z,3.35
2019-04-27T14:35:28.501Z,3.75
2019-04-27T14:37:58.230Z,4.92
2019-04-27T14:40:28.785Z,4.72
2019-04-27T14:42:59.023Z,4.55
2019-04-27T14:45:28.961Z,3.58
2019-04-27T14:47:58.915Z,3.77
2019-04-27T14:50:28.614Z,4.00
2019-04-27T14:52:59.042Z,3.52
2019-04-27T14:55:30.126Z,3.58
2019-04-27T14:58:01.822Z,3.22
2019-04-27T15:00:32.114Z,2.80
2019-04-27T15:03:01.809Z,3.00
2019-04-27T15:05:31.363Z,3.45
2019-04-27T15:08:01.737Z,3.12
2019-04-27T15:10:32.962Z,3.12
2019-04-27T15:13:06.423Z,4.00
2019-04-27T15:15:36.245Z,3.60
2019-04-27T15:18:05.937Z,3.35
2019-04-27T15:20:45.880Z,2.92
2019-04-27T15:23:15.165Z,3.15
2019-04-27T15:25:46.959Z,3.22
2019-04-27T15:28:18.937Z,3.52
2019-04-27T15:31:26.306Z,2.70
2019-04-27T15:34:05.333Z,2.65
2019-04-27T15:36:59.325Z,2.30
2019-04-27T15:40:10.002Z,2.62
2019-04-27T15:42:51.215Z,3.75
2019-04-27T15:45:20.586Z,2.87
2019-04-27T15:47:54.210Z,4.00
2019-04-27T15:50:19.045Z,3.37
2019-04-27T15:52:48.833Z,1.77
2019-04-27T15:55:31.577Z,1.57
2019-04-27T15:57:50.439Z,1.90
2019-04-27T16:00:29.257Z,1.80
2019-04-27T16:02:58.798Z,1.95
2019-04-27T16:05:32.216Z,2.37
2019-04-27T16:08:06.203Z,2.30
2019-04-27T16:10:36.870Z,2.00
2019-04-27T16:13:06.887Z,2.00
2019-04-27T16:15:35.596Z,2.42
2019-04-27T16:18:09.553Z,2.83
2019-04-27T16:20:40.169Z,1.65
2019-04-27T16:23:09.679Z,2.40
2019-04-27T16:25:48.589Z,2.37
2019-04-27T16:28:29.506Z,2.60
2019-04-27T16:31:00.542Z,1.82
2019-04-27T16:33:30.162Z,2.15
2019-04-27T16:36:06.999Z,3.00
2019-04-27T16:39:06.405Z,2.75
2019-04-27T16:41:36.921Z,2.92
2019-04-27T16:44:07.020Z,2.75
2019-04-27T16:46:41.615Z,2.33
2019-04-27T16:49:13.547Z,2.05
2019-04-27T16:51:40.366Z,2.60
2019-04-27T16:54:17.528Z,1.90
2019-04-27T16:56:45.703Z,2.37
2019-04-27T16:59:39.808Z,2.75
2019-04-27T17:02:12.386Z,2.95
2019-04-27T17:04:54.133Z,2.45
2019-04-27T17:07:18.950Z,2.37
2019-04-27T17:09:52.088Z,2.92
2019-04-27T17:12:28.771Z,2.10
2019-04-27T17:15:13.624Z,2.33
2019-04-27T17:18:05.234Z,3.25
2019-04-27T17:20:38.259Z,2.42
2019-04-27T17:23:08.654Z,2.27
2019-04-27T17:25:41.026Z,2.98
2019-04-27T17:28:41.424Z,2.72
2019-04-27T17:31:12.986Z,2.80
2019-04-27T17:33:49.936Z,2.67
2019-04-27T17:36:19.896Z,3.05
2019-04-27T17:38:51.170Z,2.22
2019-04-27T17:41:42.212Z,2.98
2019-04-27T17:44:12.744Z,3.55
2019-04-27T17:46:47.613Z,3.30
2019-04-27T17:49:15.096Z,3.50
2019-04-27T17:51:44.675Z,3.35
2019-04-27T17:54:14.787Z,3.35
2019-04-27T17:56:50.966Z,3.50
2019-04-27T17:59:18.637Z,2.22
2019-04-27T18:01:49.434Z,2.70
2019-04-27T18:04:18.737Z,3.92
2019-04-27T18:06:48.524Z,2.77
2019-04-27T18:09:18.921Z,2.85
2019-04-27T18:11:54.171Z,3.08
2019-04-27T18:14:22.855Z,2.40
2019-04-27T18:16:52.566Z,3.08
2019-04-27T18:19:29.881Z,2.83
2019-04-27T18:22:03.967Z,3.40
2019-04-27T18:24:41.753Z,3.10
2019-04-27T18:27:37.785Z,3.50
2019-04-27T18:30:19.104Z,3.90
2019-04-27T18:32:49.072Z,4.15
2019-04-27T18:35:19.987Z,4.00
2019-04-27T18:37:53.692Z,3.70
2019-04-27T18:40:23.771Z,3.65
2019-04-27T18:42:52.929Z,5.80
2019-04-27T18:45:22.615Z,4.40
2019-04-27T18:48:06.681Z,4.17
2019-04-27T18:50:43.473Z,3.72
2019-04-27T18:53:24.419Z,3.80
2019-04-27T18:55:57.627Z,3.50
2019-04-27T18:58:23.760Z,3.20
2019-04-27T19:00:53.283Z,4.10
2019-04-27T19:03:22.915Z,3.95
2019-04-27T19:05:52.398Z,3.80
2019-04-27T19:08:22.107Z,3.98
2019-04-27T19:10:51.584Z,3.90
2019-04-27T19:13:21.157Z,3.65
2019-04-27T19:15:50.715Z,3.65
2019-04-27T19:18:20.372Z,3.10
2019-04-27T19:20:50.037Z,3.75
2019-04-27T19:23:19.688Z,4.30
2019-04-27T19:25:55.616Z,3.58
2019-04-27T19:28:48.326Z,4.00
2019-04-27T19:31:29.319Z,4.35
2019-04-27T19:33:58.859Z,4.20
2019-04-27T19:36:30.249Z,3.35
2019-04-27T19:38:59.602Z,3.12
2019-04-27T19:41:29.149Z,5.10
2019-04-27T19:43:59.856Z,2.90
2019-04-27T19:46:30.546Z,3.72
2019-04-27T19:49:00.434Z,3.65
2019-04-27T19:51:30.039Z,3.35
2019-04-27T19:53:59.523Z,4.00
2019-04-27T19:56:29.153Z,4.35
2019-04-27T19:59:01.028Z,4.90
2019-04-27T20:01:35.799Z,3.62
2019-04-27T20:04:21.746Z,4.92
2019-04-27T20:06:51.332Z,3.80
2019-04-27T20:09:43.030Z,3.62
2019-04-27T20:12:13.748Z,4.83
2019-04-27T20:14:59.544Z,4.42
2019-04-27T20:17:33.195Z,3.02
2019-04-27T20:20:04.169Z,3.00
2019-04-27T20:22:33.700Z,3.10
2019-04-27T20:25:03.544Z,2.85
2019-04-27T20:27:44.970Z,3.30
2019-04-27T20:30:06.777Z,3.90
2019-04-27T20:32:36.384Z,3.75
2019-04-27T20:35:06.559Z,3.60
2019-04-27T20:37:36.611Z,3.30
2019-04-27T20:40:06.814Z,2.87
2019-04-27T20:42:36.318Z,3.72
2019-04-27T20:45:06.320Z,2.90
2019-04-27T20:47:35.826Z,3.92
2019-04-27T20:50:06.094Z,4.28
2019-04-27T20:52:53.583Z,4.55
2019-04-27T20:55:23.907Z,4.30
2019-04-27T20:58:01.660Z,5.10
2019-04-27T21:00:25.230Z,4.37
2019-04-27T21:03:13.823Z,4.42
2019-04-27T21:05:58.742Z,4.65
2019-04-27T21:08:30.945Z,4.67
2019-04-27T21:11:01.637Z,4.70
2019-04-27T21:13:31.517Z,4.33
2019-04-27T21:16:02.260Z,5.22
2019-04-27T21:18:31.954Z,6.45
2019-04-27T21:21:01.772Z,5.08
2019-04-27T21:23:31.379Z,5.30
2019-04-27T21:26:02.105Z,5.58
2019-04-27T21:28:33.404Z,6.08
2019-04-27T21:31:03.131Z,4.92
2019-04-27T21:33:32.706Z,4.45
2019-04-27T21:36:02.529Z,5.00
2019-04-27T21:38:32.027Z,4.58
2019-04-27T21:41:01.608Z,5.53
2019-04-27T21:43:32.704Z,5.87
2019-04-27T21:46:02.450Z,5.58
2019-04-27T21:48:31.943Z,6.40
2019-04-27T21:51:01.659Z,6.55
2019-04-27T21:53:53.434Z,6.83
2019-04-27T21:56:23.250Z,6.78
2019-04-27T21:58:52.719Z,8.33
2019-04-27T22:01:31.864Z,8.70
2019-04-27T22:04:01.652Z,7.35
2019-04-27T22:06:31.226Z,7.70
2019-04-27T22:09:01.447Z,9.08
2019-04-27T22:11:31.952Z,9.05
2019-04-27T22:14:06.038Z,9.05
2019-04-27T22:16:35.050Z,11.25
2019-04-27T22:19:04.661Z,8.33
2019-04-27T22:21:34.748Z,8.40
2019-04-27T22:24:30.814Z,7.75
2019-04-27T22:27:00.380Z,8.03
2019-04-27T22:29:32.117Z,9.10
2019-04-27T22:32:02.820Z,7.75
2019-04-27T22:34:32.378Z,7.83
2019-04-27T22:37:02.749Z,9.08
2019-04-27T22:39:52.517Z,8.15
2019-04-27T22:42:48.530Z,8.75
2019-04-27T22:45:23.388Z,9.98
2019-04-27T22:47:52.913Z,9.23
2019-04-27T22:50:22.643Z,10.58
2019-04-27T22:52:52.268Z,10.70
2019-04-27T22:55:22.051Z,10.15
2019-04-27T22:58:07.064Z,11.18
2019-04-27T23:00:44.555Z,10.10
2019-04-27T23:03:17.617Z,10.63
2019-04-27T23:05:47.101Z,11.20
2019-04-27T23:08:16.558Z,8.60
2019-04-27T23:10:46.082Z,9.90
2019-04-27T23:13:15.698Z,10.00
2019-04-27T23:15:47.660Z,9.83
2019-04-27T23:18:17.226Z,10.13
2019-04-27T23:20:46.726Z,10.85
2019-04-27T23:23:16.792Z,10.20
2019-04-27T23:25:47.351Z,10.25
2019-04-27T23:28:17.231Z,9.83
2019-04-27T23:31:04.663Z,12.05
2019-04-27T23:33:34.331Z,12.20
2019-04-27T23:36:03.931Z,10.95
2019-04-27T23:38:33.438Z,14.35
2019-04-27T23:41:03.010Z,11.00
2019-04-27T23:43:32.557Z,9.90
2019-04-27T23:46:02.210Z,11.68
2019-04-27T23:48:32.135Z,11.35
2019-04-27T23:51:12.180Z,9.25
2019-04-27T23:53:41.854Z,11.22
2019-04-27T23:56:11.403Z,10.53
2019-04-27T23:58:40.932Z,11.75
